Time;durP1;ratioP1;P1;durP2;ratioP2;P2;SDS_P1;SDS_P2;PMS_P1;PMS_P2;Temp;Humidity;BMP_temperature;BMP_pressure;BME280_temperature;BME280_humidity;BME280_pressure;Samples;Min_cycle;Max_cycle;Signal;HPM_P1;HPM_P2
2022/10/23 00:00:20;;;;;;;1.07;1.07;;;11.10;99.90;10.40;96084.00;;;;5114583;28;20218;-53
2022/10/23 00:02:52;;;;;;;0.60;0.60;;;11.10;93.90;10.40;96060.00;;;;5114806;28;20221;-53
2022/10/23 00:05:22;;;;;;;0.77;0.77;;;11.10;94.80;10.40;96063.00;;;;5114604;28;20289;-52
2022/10/23 00:07:50;;;;;;;1.13;1.13;;;11.10;94.90;10.40;96061.00;;;;5114501;28;20194;-51
2022/10/23 00:10:17;;;;;;;1.27;1.27;;;11.10;94.80;10.40;96068.00;;;;5114548;28;20514;-52
2022/10/23 00:12:44;;;;;;;1.07;1.07;;;11.20;95.00;10.30;96077.00;;;;5114509;28;20194;-53
2022/10/23 00:15:11;;;;;;;3.53;1.17;;;11.00;94.70;10.10;96073.00;;;;5114544;28;20221;-51
2022/10/23 00:17:38;;;;;;;0.60;0.60;;;11.00;94.20;10.10;96060.00;;;;5096188;28;20550;-54
2022/10/23 00:20:08;;;;;;;0.80;0.80;;;10.80;94.60;10.10;96079.00;;;;5114399;28;20297;-52
2022/10/23 00:22:35;;;;;;;1.33;1.23;;;10.80;94.30;10.20;96078.00;;;;5096339;28;20226;-52
2022/10/23 00:25:02;;;;;;;0.60;0.60;;;10.90;94.60;10.20;96082.00;;;;5114514;28;20483;-53
2022/10/23 00:27:29;;;;;;;1.37;1.33;;;11.00;94.50;10.20;96078.00;;;;5096732;28;20205;-54
2022/10/23 00:29:55;;;;;;;0.70;0.70;;;10.90;94.70;10.30;96071.00;;;;5114536;28;20260;-52
2022/10/23 00:32:25;;;;;;;1.10;1.10;;;11.00;95.60;10.30;96073.00;;;;5114287;28;20194;-51
2022/10/23 00:34:52;;;;;;;1.27;1.27;;;11.10;95.40;10.00;96061.00;;;;5114102;28;20314;-52
2022/10/23 00:37:19;;;;;;;1.00;1.00;;;10.80;94.80;9.90;96058.00;;;;5114102;28;20230;-51
2022/10/23 00:39:45;;;;;;;0.90;0.90;;;10.70;94.20;9.90;96049.00;;;;5114133;28;20263;-51
2022/10/23 00:42:16;;;;;;;0.90;0.90;;;10.70;94.20;9.90;96051.00;;;;5113201;28;20225;-51
2022/10/23 00:45:22;;;;;;;1.37;1.23;;;10.70;94.00;9.90;96046.00;;;;5113962;28;20201;-51
2022/10/23 00:47:49;;;;;;;0.80;0.80;;;10.60;94.00;9.80;96043.00;;;;5114009;28;20272;-51
2022/10/23 00:50:21;;;;;;;0.83;0.83;;;10.60;93.30;9.70;96050.00;;;;5113871;28;20197;-53
2022/10/23 00:52:50;;;;;;;0.80;0.80;;;10.50;93.30;9.60;96061.00;;;;5113846;28;20206;-53
2022/10/23 00:55:21;;;;;;;0.90;0.90;;;10.40;93.10;9.60;96055.00;;;;5114077;28;20222;-51
2022/10/23 00:57:50;;;;;;;0.70;0.70;;;10.30;93.70;9.50;96053.00;;;;5113895;28;20212;-51
2022/10/23 01:00:21;;;;;;;0.70;0.70;;;10.20;94.20;9.50;96051.00;;;;5113791;28;20204;-51
2022/10/23 01:02:47;;;;;;;1.00;1.00;;;10.30;94.70;9.60;96058.00;;;;5095647;28;20230;-51
2022/10/23 01:05:14;;;;;;;1.03;1.03;;;10.30;94.90;9.70;96051.00;;;;5113691;28;20193;-52
2022/10/23 01:07:52;;;;;;;0.83;0.83;;;10.40;95.10;9.80;96050.00;;;;5113670;28;20221;-51
2022/10/23 01:10:31;;;;;;;1.63;1.53;;;10.50;95.00;9.80;96044.00;;;;5113755;28;20194;-51
2022/10/23 01:13:07;;;;;;;0.77;0.77;;;10.50;94.90;9.70;96036.00;;;;5113606;28;20221;-51
2022/10/23 01:15:42;;;;;;;1.30;1.20;;;10.50;95.20;9.70;96036.00;;;;5113645;28;20189;-52
2022/10/23 01:18:20;;;;;;;0.90;0.90;;;10.40;94.60;9.70;96045.00;;;;5113722;28;20193;-51
2022/10/23 01:20:54;;;;;;;0.70;0.70;;;10.50;94.80;9.60;96037.00;;;;5095763;28;20350;-52
2022/10/23 01:24:07;;;;;;;0.70;0.70;;;10.40;94.40;9.60;96036.00;;;;5113511;28;20224;-51
2022/10/23 01:26:50;;;;;;;0.80;0.80;;;10.40;94.70;9.60;96036.00;;;;5113395;28;20190;-52
2022/10/23 01:29:27;;;;;;;0.70;0.70;;;10.30;94.70;9.50;96037.00;;;;5113383;28;20202;-53
2022/10/23 01:32:03;;;;;;;0.63;0.63;;;10.30;95.40;9.50;96020.00;;;;5113434;28;20220;-51
2022/10/23 01:34:41;;;;;;;0.90;0.90;;;10.20;95.90;9.50;96019.00;;;;5113412;28;20189;-53
2022/10/23 01:37:14;;;;;;;0.60;0.60;;;10.30;96.20;9.40;96028.00;;;;5113415;28;20194;-51
2022/10/23 01:39:49;;;;;;;0.60;0.60;;;10.20;95.90;9.40;96016.00;;;;5113172;28;20197;-51
2022/10/23 01:42:23;;;;;;;0.80;0.80;;;10.20;96.10;9.40;96012.00;;;;5112911;28;20669;-51
2022/10/23 01:44:58;;;;;;;1.23;1.20;;;10.10;95.90;9.40;96018.00;;;;5095471;28;20210;-51
2022/10/23 01:47:30;;;;;;;0.83;0.83;;;10.20;96.90;9.40;96016.00;;;;5113023;28;20217;-53
2022/10/23 01:49:59;;;;;;;0.73;0.73;;;10.20;96.00;9.50;96011.00;;;;5095212;28;20223;-51
2022/10/23 01:52:26;;;;;;;0.70;0.70;;;10.20;95.70;9.40;96010.00;;;;5113085;28;20225;-51
2022/10/23 01:55:00;;;;;;;0.93;0.83;;;10.20;95.50;9.50;96013.00;;;;5116631;28;20209;-51
2022/10/23 01:57:30;;;;;;;0.60;0.60;;;10.20;95.50;9.30;96005.00;;;;5116470;28;20198;-51
2022/10/23 02:00:03;;;;;;;1.70;1.10;;;10.10;94.90;9.40;95990.00;;;;5116456;28;20212;-51
2022/10/23 02:02:35;;;;;;;0.80;0.80;;;10.10;95.00;9.50;95991.00;;;;5098342;28;20221;-51
2022/10/23 02:05:08;;;;;;;0.90;0.90;;;10.20;95.40;9.50;95999.00;;;;5116622;28;20289;-51
2022/10/23 02:07:35;;;;;;;0.70;0.70;;;10.20;95.30;9.40;95998.00;;;;5116420;28;20618;-51
2022/10/23 02:10:05;;;;;;;0.83;0.83;;;10.20;94.60;9.50;95997.00;;;;5098371;28;20233;-51
2022/10/23 02:12:45;;;;;;;0.80;0.80;;;10.20;94.20;9.40;95995.00;;;;5116455;28;20236;-51
2022/10/23 02:15:23;;;;;;;0.57;0.57;;;10.20;94.80;9.50;95984.00;;;;5098353;28;20229;-51
2022/10/23 02:18:03;;;;;;;1.00;1.00;;;10.20;96.00;9.40;95979.00;;;;5116288;28;20276;-50
2022/10/23 02:20:39;;;;;;;1.00;1.00;;;10.20;95.70;9.40;95980.00;;;;5115989;28;20229;-51
2022/10/23 02:23:19;;;;;;;0.80;0.80;;;10.20;95.30;9.20;95987.00;;;;5116092;28;20217;-53
2022/10/23 02:25:52;;;;;;;0.60;0.60;;;10.00;94.20;9.30;95985.00;;;;5115990;28;20230;-51
2022/10/23 02:28:26;;;;;;;1.03;0.93;;;10.00;95.40;9.30;95974.00;;;;5116023;28;20209;-51
2022/10/23 02:30:56;;;;;;;1.30;1.27;;;10.00;94.50;9.30;95973.00;;;;5115956;28;20258;-51
2022/10/23 02:33:26;;;;;;;0.70;0.70;;;10.00;94.50;9.40;95973.00;;;;5115986;28;20255;-51
2022/10/23 02:35:52;;;;;;;1.37;1.30;;;10.10;95.10;9.30;95961.00;;;;5115946;28;20194;-51
2022/10/23 02:38:36;;;;;;;0.60;0.60;;;10.10;94.70;9.20;95954.00;;;;5115859;28;20210;-51
2022/10/23 02:41:34;;;;;;;0.80;0.80;;;10.10;94.80;9.20;95961.00;;;;5115930;28;20185;-51
2022/10/23 02:44:19;;;;;;;0.67;0.67;;;10.00;94.20;9.10;95948.00;;;;5098030;28;20221;-51
2022/10/23 02:46:58;;;;;;;0.60;0.60;;;9.80;94.10;9.20;95950.00;;;;5115863;28;20355;-51
2022/10/23 02:49:34;;;;;;;0.70;0.70;;;9.90;95.20;9.20;95949.00;;;;5115632;28;20306;-51
2022/10/23 02:52:11;;;;;;;1.00;1.00;;;10.00;95.00;9.30;95940.00;;;;5115559;28;20217;-52
2022/10/23 02:55:00;;;;;;;0.70;0.70;;;10.00;94.90;9.30;95957.00;;;;5115637;28;20362;-56
2022/10/23 02:57:34;;;;;;;1.00;1.00;;;10.00;94.40;9.30;95945.00;;;;5115588;28;20695;-53
2022/10/23 03:00:07;;;;;;;0.77;0.77;;;10.00;94.30;9.20;95947.00;;;;5115487;28;20221;-51
2022/10/23 03:02:40;;;;;;;0.87;0.87;;;10.00;94.50;9.30;95941.00;;;;5097412;28;20524;-51
2022/10/23 03:05:12;;;;;;;0.60;0.60;;;10.00;95.10;9.40;95936.00;;;;5114820;28;20627;-51
2022/10/23 03:07:40;;;;;;;0.90;0.90;;;10.00;95.40;9.40;95939.00;;;;5115528;28;20207;-51
2022/10/23 03:10:10;;;;;;;0.90;0.90;;;10.10;96.00;9.40;95935.00;;;;5097273;28;20701;-51
2022/10/23 03:12:37;;;;;;;0.80;0.80;;;10.20;95.60;9.40;95938.00;;;;5115265;28;20222;-53
2022/10/23 03:15:04;;;;;;;1.20;1.10;;;10.20;95.80;9.40;95938.00;;;;5115289;28;20666;-51
2022/10/23 03:17:31;;;;;;;0.80;0.80;;;10.10;96.10;9.50;95932.00;;;;5115226;28;20665;-51
2022/10/23 03:20:00;;;;;;;0.50;0.50;;;10.20;96.50;9.50;95937.00;;;;5097212;28;20205;-51
2022/10/23 03:22:26;;;;;;;0.70;0.70;;;10.20;96.90;9.50;95926.00;;;;5097157;28;20316;-51
2022/10/23 03:24:53;;;;;;;1.07;1.07;;;10.30;96.60;9.40;95929.00;;;;5115123;28;20280;-55
2022/10/23 03:27:19;;;;;;;0.53;0.53;;;10.20;96.00;9.40;95927.00;;;;5115058;28;20227;-52
2022/10/23 03:29:45;;;;;;;0.60;0.60;;;10.20;95.70;9.30;95924.00;;;;5115169;28;20270;-52
2022/10/23 03:32:12;;;;;;;0.50;0.50;;;10.10;95.20;9.30;95932.00;;;;5114882;28;20657;-51
2022/10/23 03:34:38;;;;;;;0.70;0.70;;;10.00;94.90;9.20;95925.00;;;;5114975;28;20190;-51
2022/10/23 03:37:05;;;;;;;0.63;0.63;;;9.90;94.60;9.20;95923.00;;;;5114905;28;20205;-52
2022/10/23 03:39:32;;;;;;;0.60;0.60;;;9.90;94.90;9.10;95921.00;;;;5114820;28;20222;-51
2022/10/23 03:41:58;;;;;;;0.50;0.50;;;9.90;94.80;9.10;95920.00;;;;5096830;28;20202;-52
2022/10/23 03:44:25;;;;;;;0.80;0.80;;;9.90;94.90;9.10;95916.00;;;;5114797;28;20540;-51
2022/10/23 03:46:51;;;;;;;1.33;1.00;;;9.80;94.70;9.10;95919.00;;;;5114886;28;20213;-52
2022/10/23 03:49:20;;;;;;;0.70;0.70;;;9.80;94.80;9.10;95921.00;;;;5114615;28;20210;-51
2022/10/23 03:51:50;;;;;;;0.80;0.80;;;9.80;95.00;9.10;95928.00;;;;5096933;28;20202;-52
2022/10/23 03:54:21;;;;;;;0.73;0.73;;;9.80;95.80;9.00;95926.00;;;;5114631;28;20222;-51
2022/10/23 03:56:50;;;;;;;0.63;0.63;;;9.80;94.60;8.90;95891.00;;;;5114644;28;20223;-51
2022/10/23 03:59:17;;;;;;;0.67;0.67;;;9.80;94.80;8.90;95922.00;;;;5114615;28;20660;-51
2022/10/23 04:01:46;;;;;;;0.60;0.60;;;9.70;95.20;8.90;95924.00;;;;5114464;28;20684;-51
2022/10/23 04:04:14;;;;;;;0.60;0.60;;;9.70;95.30;9.00;95928.00;;;;5114561;28;20201;-51
2022/10/23 04:06:40;;;;;;;0.70;0.70;;;9.70;95.30;9.00;95920.00;;;;5096457;28;20267;-51
2022/10/23 04:09:09;;;;;;;0.70;0.70;;;9.70;95.30;8.90;95918.00;;;;5114530;28;20189;-51
2022/10/23 04:11:38;;;;;;;0.90;0.90;;;9.70;95.00;8.90;95919.00;;;;5114264;28;20198;-53
2022/10/23 04:14:04;;;;;;;0.80;0.80;;;9.70;95.20;8.90;95919.00;;;;5114538;28;20190;-51
2022/10/23 04:16:31;;;;;;;0.53;0.53;;;9.60;94.90;8.90;95922.00;;;;5113188;28;20660;-51
2022/10/23 04:18:57;;;;;;;0.90;0.90;;;9.60;95.20;9.00;95917.00;;;;5114212;28;20222;-51
2022/10/23 04:21:24;;;;;;;0.70;0.70;;;9.70;95.40;9.00;95922.00;;;;5114233;28;20194;-54
2022/10/23 04:23:50;;;;;;;0.50;0.50;;;9.70;95.30;9.00;95918.00;;;;5114138;28;20662;-53
2022/10/23 04:26:16;;;;;;;0.90;0.90;;;9.70;95.30;9.10;95909.00;;;;5114182;28;20636;-51
2022/10/23 04:28:43;;;;;;;0.60;0.60;;;9.80;95.30;9.00;95910.00;;;;5114056;28;20194;-51
2022/10/23 04:31:10;;;;;;;0.73;0.73;;;9.80;95.10;9.00;95918.00;;;;5114144;28;20202;-52
2022/10/23 04:33:36;;;;;;;0.70;0.70;;;9.80;95.10;9.00;95920.00;;;;5096107;28;20226;-51
2022/10/23 04:36:03;;;;;;;0.90;0.90;;;9.80;95.10;9.00;95923.00;;;;5114066;28;20206;-51
2022/10/23 04:38:30;;;;;;;0.60;0.60;;;9.70;95.20;8.90;95916.00;;;;5113979;28;20219;-51
2022/10/23 04:40:56;;;;;;;0.80;0.80;;;9.70;95.10;9.00;95924.00;;;;5113949;28;20218;-51
2022/10/23 04:43:22;;;;;;;0.80;0.80;;;9.80;95.40;8.90;95924.00;;;;5114101;28;20510;-53
2022/10/23 04:45:52;;;;;;;0.60;0.60;;;9.70;95.20;9.00;95924.00;;;;5113892;28;20585;-51
2022/10/23 04:48:18;;;;;;;0.73;0.73;;;9.70;95.70;9.00;95923.00;;;;5113992;28;20201;-51
2022/10/23 04:50:55;;;;;;;0.90;0.90;;;9.70;96.10;8.90;95922.00;;;;5113832;28;20210;-51
2022/10/23 04:53:22;;;;;;;0.50;0.50;;;9.60;95.50;8.90;95919.00;;;;5113787;28;20225;-51
2022/10/23 04:55:50;;;;;;;1.40;1.33;;;9.60;95.90;8.90;95919.00;;;;5113678;28;20561;-51
2022/10/23 04:58:16;;;;;;;0.60;0.60;;;9.70;96.10;8.90;95907.00;;;;5095668;28;20711;-51
2022/10/23 05:00:42;;;;;;;0.83;0.83;;;9.70;96.30;9.00;95912.00;;;;5113612;28;20541;-51
2022/10/23 05:03:09;;;;;;;0.70;0.70;;;9.70;96.40;9.00;95912.00;;;;5113582;28;20220;-51
2022/10/23 05:05:36;;;;;;;0.60;0.60;;;9.70;96.50;9.00;95901.00;;;;5113871;28;20589;-51
2022/10/23 05:08:02;;;;;;;0.57;0.57;;;9.80;96.00;9.10;95910.00;;;;5113486;28;20225;-51
2022/10/23 05:10:31;;;;;;;0.80;0.80;;;9.80;96.00;9.10;95906.00;;;;5113613;28;20210;-51
2022/10/23 05:12:57;;;;;;;0.80;0.80;;;9.80;95.80;9.00;95898.00;;;;5095734;28;20225;-51
2022/10/23 05:15:24;;;;;;;0.67;0.67;;;9.80;95.50;9.00;95882.00;;;;5113572;28;20190;-51
2022/10/23 05:17:56;;;;;;;0.60;0.60;;;9.80;95.80;9.10;95903.00;;;;5113493;28;20196;-51
2022/10/23 05:20:30;;;;;;;1.67;1.57;;;9.80;96.00;9.10;95892.00;;;;5113384;28;20225;-51
2022/10/23 05:22:59;;;;;;;0.97;0.97;;;9.80;96.10;9.20;95892.00;;;;5113411;28;20193;-52
2022/10/23 05:25:26;;;;;;;1.03;1.00;;;9.90;96.20;9.20;95886.00;;;;5113326;28;20213;-51
2022/10/23 05:27:54;;;;;;;0.90;0.90;;;9.90;95.70;9.00;95894.00;;;;5114242;28;20214;-51
2022/10/23 05:30:21;;;;;;;0.77;0.77;;;9.80;94.70;9.00;95889.00;;;;5116890;28;20264;-51
2022/10/23 05:32:47;;;;;;;0.70;0.70;;;9.80;94.70;9.00;95894.00;;;;5117087;28;20236;-51
2022/10/23 05:35:22;;;;;;;0.70;0.70;;;9.70;95.00;9.00;95888.00;;;;5117094;28;20210;-53
2022/10/23 05:37:52;;;;;;;0.60;0.60;;;9.70;95.10;8.90;95882.00;;;;5116954;28;20201;-51
2022/10/23 05:40:19;;;;;;;0.87;0.87;;;9.70;95.10;9.00;95880.00;;;;5116821;28;20194;-51
2022/10/23 05:42:45;;;;;;;0.70;0.70;;;9.70;95.40;9.00;95893.00;;;;5098759;28;20744;-51
2022/10/23 05:45:12;;;;;;;0.83;0.83;;;9.70;95.10;8.90;95876.00;;;;5116737;28;20218;-51
2022/10/23 05:47:38;;;;;;;0.70;0.70;;;9.60;95.20;8.90;95880.00;;;;5098632;28;20232;-51
2022/10/23 05:50:05;;;;;;;0.70;0.70;;;9.70;95.50;8.90;95882.00;;;;5116662;28;20198;-51
2022/10/23 05:52:32;;;;;;;1.27;1.17;;;9.60;95.50;8.90;95876.00;;;;5116361;28;20218;-51
2022/10/23 05:55:01;;;;;;;0.80;0.80;;;9.60;95.60;8.90;95882.00;;;;5116629;28;20322;-51
2022/10/23 05:57:28;;;;;;;0.60;0.60;;;9.60;95.40;8.90;95879.00;;;;5116491;28;20194;-56
2022/10/23 05:59:54;;;;;;;0.80;0.80;;;9.60;95.50;8.90;95873.00;;;;5116387;28;20213;-51
2022/10/23 06:02:20;;;;;;;0.80;0.80;;;9.60;95.50;9.00;95870.00;;;;5098445;28;20521;-51
2022/10/23 06:04:47;;;;;;;1.00;1.00;;;9.70;95.60;8.80;95866.00;;;;5116438;28;20226;-51
2022/10/23 06:07:15;;;;;;;1.73;1.63;;;9.60;94.60;8.80;95869.00;;;;5098336;28;20497;-51
2022/10/23 06:09:42;;;;;;;0.90;0.90;;;9.60;95.00;8.80;95873.00;;;;5116339;28;20244;-51
2022/10/23 06:12:09;;;;;;;1.00;1.00;;;9.60;95.70;8.90;95871.00;;;;5116237;28;20275;-51
2022/10/23 06:14:35;;;;;;;1.30;1.27;;;9.60;94.80;8.90;95876.00;;;;5116211;28;20205;-51
2022/10/23 06:17:01;;;;;;;1.10;1.10;;;9.60;94.90;9.00;95875.00;;;;5116318;28;20227;-52
2022/10/23 06:19:28;;;;;;;1.33;1.23;;;9.70;95.50;9.10;95880.00;;;;5115941;28;20202;-55
2022/10/23 06:21:57;;;;;;;0.60;0.60;;;9.80;95.80;9.10;95866.00;;;;5116051;28;20274;-52
2022/10/23 06:24:23;;;;;;;0.60;0.60;;;9.80;96.00;9.20;95871.00;;;;5116169;28;20194;-51
2022/10/23 06:26:50;;;;;;;0.70;0.70;;;9.90;96.20;9.20;95872.00;;;;5116103;28;20300;-51
2022/10/23 06:29:19;;;;;;;0.67;0.67;;;9.90;96.00;9.30;95876.00;;;;5116210;28;20194;-51
2022/10/23 06:31:46;;;;;;;0.80;0.80;;;10.00;95.80;9.20;95870.00;;;;5098050;28;20535;-51
2022/10/23 06:34:13;;;;;;;0.80;0.80;;;10.00;95.50;9.30;95869.00;;;;5116025;28;20225;-51
2022/10/23 06:36:39;;;;;;;0.80;0.80;;;10.00;95.60;9.30;95862.00;;;;5116065;28;20220;-51
2022/10/23 06:39:06;;;;;;;0.60;0.60;;;10.00;95.50;9.40;95850.00;;;;5115256;28;20282;-51
2022/10/23 06:41:32;;;;;;;0.60;0.60;;;10.10;95.40;9.40;95870.00;;;;5115650;28;20206;-52
2022/10/23 06:43:59;;;;;;;0.93;0.93;;;10.10;94.80;9.40;95859.00;;;;5115721;28;20210;-52
2022/10/23 06:46:27;;;;;;;0.60;0.60;;;10.10;94.60;9.40;95852.00;;;;5115854;28;20240;-52
2022/10/23 06:48:53;;;;;;;0.70;0.70;;;10.10;94.90;9.50;95865.00;;;;5115818;28;20226;-51
2022/10/23 06:51:21;;;;;;;0.70;0.70;;;10.20;95.10;9.50;95863.00;;;;5114844;28;20308;-51
2022/10/23 06:53:47;;;;;;;0.50;0.50;;;10.20;94.50;9.50;95863.00;;;;5097635;28;20236;-52
2022/10/23 06:56:14;;;;;;;0.63;0.63;;;10.20;94.60;9.50;95861.00;;;;5116007;28;20198;-54
2022/10/23 06:58:41;;;;;;;0.60;0.60;;;10.20;94.40;9.60;95871.00;;;;5115684;28;20272;-51
2022/10/23 07:01:11;;;;;;;0.60;0.60;;;;;9.60;95870.00;;;;5115542;28;20221;-52
2022/10/23 07:03:38;;;;;;;0.70;0.70;;;10.30;93.40;9.70;95869.00;;;;5115592;28;20228;-52
2022/10/23 07:06:09;;;;;;;0.70;0.70;;;10.40;95.00;9.80;95870.00;;;;5115460;28;20236;-51
2022/10/23 07:08:37;;;;;;;0.70;0.70;;;10.50;94.60;9.80;95856.00;;;;5115445;28;20198;-52
2022/10/23 07:11:08;;;;;;;3.47;1.07;;;10.50;95.30;10.10;95859.00;;;;5115653;28;20764;-55
2022/10/23 07:13:37;;;;;;;0.60;0.60;;;10.70;95.50;10.10;95863.00;;;;5115441;28;20222;-53
2022/10/23 07:16:16;;;;;;;0.97;0.97;;;10.80;94.20;10.10;95865.00;;;;5097477;28;20502;-53
2022/10/23 07:18:44;;;;;;;0.60;0.60;;;10.80;92.90;10.10;95855.00;;;;5115488;28;20205;-52
2022/10/23 07:21:10;;;;;;;0.60;0.60;;;10.80;92.60;10.10;95864.00;;;;5115339;28;20284;-51
2022/10/23 07:23:37;;;;;;;0.70;0.70;;;10.80;92.60;10.10;95871.00;;;;5097334;28;20300;-52
2022/10/23 07:26:10;;;;;;;1.07;1.07;;;10.70;92.60;10.10;95864.00;;;;5115295;28;20291;-51
2022/10/23 07:28:37;;;;;;;0.57;0.57;;;10.80;93.80;10.10;95862.00;;;;5115168;28;20221;-51
2022/10/23 07:31:04;;;;;;;1.10;1.10;;;10.80;93.90;10.20;95857.00;;;;5097176;28;20221;-52
2022/10/23 07:33:30;;;;;;;0.60;0.60;;;10.90;94.30;10.20;95860.00;;;;5115056;28;20217;-54
2022/10/23 07:36:02;;;;;;;0.73;0.73;;;10.90;94.60;10.30;95877.00;;;;5115223;28;20263;-51
2022/10/23 07:38:29;;;;;;;0.60;0.60;;;10.90;94.60;10.30;95863.00;;;;5115239;28;20212;-52
2022/10/23 07:40:57;;;;;;;0.80;0.80;;;11.00;94.60;10.40;95869.00;;;;5114991;28;20243;-51
2022/10/23 07:43:24;;;;;;;0.60;0.60;;;11.00;94.50;10.50;95865.00;;;;5097024;28;20217;-51
2022/10/23 07:45:51;;;;;;;0.60;0.60;;;11.10;94.90;10.50;95872.00;;;;5114774;28;20222;-51
2022/10/23 07:48:19;;;;;;;0.80;0.80;;;11.10;94.70;10.60;95866.00;;;;5114842;28;20232;-51
2022/10/23 07:50:46;;;;;;;0.70;0.70;;;11.20;95.00;10.60;95852.00;;;;5114622;28;20313;-51
2022/10/23 07:53:18;;;;;;;0.87;0.87;;;11.20;95.00;10.70;95861.00;;;;5114669;28;20297;-52
2022/10/23 07:55:52;;;;;;;0.80;0.80;;;11.30;95.50;10.80;95856.00;;;;5096758;28;20213;-52
2022/10/23 07:58:19;;;;;;;0.77;0.77;;;11.40;95.20;11.00;95853.00;;;;5114734;28;20190;-53
2022/10/23 08:00:51;;;;;;;0.60;0.60;;;11.50;95.50;11.00;95865.00;;;;5114583;28;20273;-54
2022/10/23 08:03:19;;;;;;;0.90;0.90;;;11.60;94.80;11.00;95865.00;;;;5114659;28;20205;-52
2022/10/23 08:05:45;;;;;;;1.00;1.00;;;11.60;94.20;11.00;95848.00;;;;5096576;28;20347;-54
2022/10/23 08:08:12;;;;;;;0.70;0.70;;;11.60;94.40;11.10;95846.00;;;;5096688;28;20573;-53
2022/10/23 08:10:40;;;;;;;0.50;0.50;;;11.70;95.50;11.30;95850.00;;;;5114449;28;20194;-56
2022/10/23 08:13:08;;;;;;;0.80;0.80;;;11.80;95.10;11.40;95844.00;;;;5096135;28;20283;-53
2022/10/23 08:15:37;;;;;;;0.80;0.80;;;12.00;95.20;11.40;95852.00;;;;5114314;28;20283;-52
2022/10/23 08:18:03;;;;;;;0.80;0.80;;;12.00;95.30;11.50;95833.00;;;;5096437;28;20222;-57
2022/10/23 08:20:36;;;;;;;0.70;0.70;;;12.10;95.00;11.60;95849.00;;;;5114310;28;20229;-54
2022/10/23 08:23:03;;;;;;;1.47;1.37;;;12.10;95.20;11.60;95833.00;;;;5114209;28;20217;-53
2022/10/23 08:25:29;;;;;;;1.77;1.47;;;12.20;95.80;11.70;95838.00;;;;5114338;28;20194;-60
2022/10/23 08:27:56;;;;;;;0.60;0.60;;;12.30;95.00;11.70;95838.00;;;;5114177;28;20273;-53
2022/10/23 08:30:23;;;;;;;0.77;0.77;;;12.30;94.80;11.70;95840.00;;;;5114216;28;20198;-54
2022/10/23 08:32:52;;;;;;;1.00;0.90;;;12.30;95.20;11.80;95838.00;;;;5114043;28;20228;-56
2022/10/23 08:35:19;;;;;;;1.30;1.30;;;12.40;95.10;12.00;95832.00;;;;5113956;28;20186;-54
2022/10/23 08:37:45;;;;;;;7.13;1.77;;;12.50;95.20;12.20;95843.00;;;;5096257;28;20300;-54
2022/10/23 08:40:15;;;;;;;0.90;0.90;;;12.70;95.00;12.30;95835.00;;;;5113935;28;20276;-52
2022/10/23 08:42:48;;;;;;;0.70;0.70;;;12.80;94.60;12.50;95831.00;;;;5114179;28;20201;-51
2022/10/23 08:45:30;;;;;;;1.23;1.23;;;13.00;94.50;12.70;95821.00;;;;5114156;28;20232;-52
2022/10/23 08:48:05;;;;;;;0.70;0.70;;;13.20;94.60;12.90;95831.00;;;;5114156;28;20237;-52
2022/10/23 08:50:40;;;;;;;0.60;0.60;;;13.40;94.80;13.00;95823.00;;;;5113906;28;20221;-52
2022/10/23 08:53:18;;;;;;;0.60;0.60;;;13.40;94.40;13.20;95838.00;;;;5113746;28;20218;-55
2022/10/23 08:55:51;;;;;;;0.53;0.53;;;13.70;95.20;13.20;95822.00;;;;5114063;28;20282;-53
2022/10/23 08:58:30;;;;;;;0.60;0.60;;;13.70;93.80;13.30;95828.00;;;;5113810;28;20198;-53
2022/10/23 09:01:00;;;;;;;0.60;0.60;;;13.80;94.40;13.70;95831.00;;;;5113805;28;20540;-52
2022/10/23 09:03:26;;;;;;;0.70;0.70;;;14.10;94.80;13.80;95835.00;;;;5113079;28;20281;-52
2022/10/23 09:06:07;;;;;;;0.53;0.53;;;14.20;94.30;14.00;95821.00;;;;5113768;28;20346;-52
2022/10/23 09:08:51;;;;;;;0.60;0.60;;;14.50;94.20;14.20;95819.00;;;;5113816;28;20654;-52
2022/10/23 09:11:30;;;;;;;0.73;0.73;;;14.70;93.80;14.50;95823.00;;;;5113686;28;20562;-52
2022/10/23 09:14:44;;;;;;;1.07;1.07;;;14.90;93.50;14.70;95821.00;;;;5113556;28;20792;-54
2022/10/23 09:17:23;;;;;;;0.87;0.87;;;15.10;93.20;14.90;95814.00;;;;5100522;28;20648;-52
2022/10/23 09:19:59;;;;;;;0.73;0.73;;;15.30;93.20;15.00;95806.00;;;;5113763;28;20280;-54
2022/10/23 09:22:28;;;;;;;0.93;0.93;;;15.50;92.60;15.20;95798.00;;;;5113462;28;20248;-53
2022/10/23 09:24:54;;;;;;;0.73;0.73;;;15.60;90.30;15.30;95790.00;;;;5113474;28;20278;-52
2022/10/23 09:27:21;;;;;;;0.80;0.80;;;15.80;89.40;15.70;95798.00;;;;5113514;28;20285;-52
2022/10/23 09:29:50;;;;;;;0.60;0.60;;;16.10;88.80;15.90;95799.00;;;;5113397;28;20254;-51
2022/10/23 09:32:31;;;;;;;0.80;0.80;;;16.30;87.60;16.10;95802.00;;;;5113218;28;20502;-51
2022/10/23 09:34:57;;;;;;;0.87;0.87;;;16.50;87.10;16.00;95785.00;;;;5113388;28;20227;-51
2022/10/23 09:37:27;;;;;;;0.83;0.83;;;16.50;86.90;16.00;95789.00;;;;5113277;28;20190;-52
2022/10/23 09:40:17;;;;;;;0.50;0.50;;;16.60;87.90;16.40;95777.00;;;;5113505;28;20209;-52
2022/10/23 09:42:57;;;;;;;0.73;0.73;;;16.80;88.40;16.70;95783.00;;;;5113208;28;20298;-51
2022/10/23 09:45:28;;;;;;;0.70;0.70;;;17.10;88.20;16.90;95781.00;;;;5113283;28;20273;-52
2022/10/23 09:48:10;;;;;;;0.70;0.70;;;17.40;83.10;17.10;95790.00;;;;5113200;28;20252;-52
2022/10/23 09:50:37;;;;;;;0.70;0.70;;;17.40;81.60;17.10;95787.00;;;;5113174;28;20201;-53
2022/10/23 09:53:03;;;;;;;0.83;0.83;;;17.50;78.80;17.40;95799.00;;;;5113042;28;20222;-52
2022/10/23 09:55:30;;;;;;;0.50;0.50;;;17.70;79.30;17.20;95807.00;;;;5113101;28;20223;-51
2022/10/23 09:57:57;;;;;;;0.70;0.70;;;17.60;75.30;17.20;95784.00;;;;5112931;28;20645;-51
2022/10/23 10:00:26;;;;;;;0.60;0.60;;;17.60;78.20;17.40;95808.00;;;;5095061;28;20210;-52
2022/10/23 10:02:59;;;;;;;0.60;0.60;;;17.80;77.20;17.50;95799.00;;;;5112968;28;20222;-54
2022/10/23 10:05:29;;;;;;;0.83;0.83;;;17.90;77.70;17.30;95802.00;;;;5113013;28;20243;-52
2022/10/23 10:08:04;;;;;;;0.50;0.50;;;17.80;71.00;17.50;95796.00;;;;5113042;28;20270;-52
2022/10/23 10:10:39;;;;;;;0.97;0.97;;;17.90;72.90;17.80;95800.00;;;;5113034;28;20707;-52
2022/10/23 10:13:37;;;;;;;2.03;1.60;;;18.10;70.90;17.90;95796.00;;;;5094903;28;20687;-52
2022/10/23 10:16:12;;;;;;;0.53;0.53;;;18.20;68.20;17.90;95784.00;;;;5115343;28;20213;-52
2022/10/23 10:18:49;;;;;;;0.40;0.40;;;18.30;62.80;18.20;95773.00;;;;5116332;28;20229;-52
2022/10/23 10:21:23;;;;;;;11.60;1.90;;;18.50;61.00;18.50;95779.00;;;;5116206;28;20221;-53
2022/10/23 10:24:01;;;;;;;0.40;0.40;;;18.80;61.90;18.90;95778.00;;;;5116112;28;20221;-52
2022/10/23 10:26:42;;;;;;;0.93;0.93;;;19.10;58.50;18.90;95767.00;;;;5116300;28;20298;-52
2022/10/23 10:29:28;;;;;;;0.50;0.50;;;19.20;56.50;19.10;95756.00;;;;5116208;28;20519;-52
2022/10/23 10:32:12;;;;;;;0.40;0.40;;;19.40;54.20;19.20;95757.00;;;;5116241;28;20216;-53
2022/10/23 10:34:53;;;;;;;0.47;0.47;;;19.50;51.60;19.30;95758.00;;;;5097832;28;20651;-52
2022/10/23 10:37:36;;;;;;;0.60;0.60;;;19.50;52.80;19.30;95742.00;;;;5098044;28;20518;-53
2022/10/23 10:40:16;;;;;;;0.53;0.53;;;19.70;52.60;19.20;95777.00;;;;5116023;28;20695;-52
2022/10/23 10:43:07;;;;;;;0.70;0.70;;;19.60;51.40;19.30;95777.00;;;;5115974;28;20212;-52
2022/10/23 10:45:40;;;;;;;0.70;0.70;;;19.70;50.80;19.10;95770.00;;;;5116062;28;20282;-52
2022/10/23 10:48:40;;;;;;;0.70;0.70;;;19.60;51.40;19.30;95774.00;;;;5115886;28;20205;-52
2022/10/23 10:51:17;;;;;;;0.40;0.40;;;19.70;50.90;19.40;95789.00;;;;5115878;28;20202;-54
2022/10/23 10:54:02;;;;;;;0.60;0.60;;;19.70;48.60;19.20;95780.00;;;;5115672;28;20659;-52
2022/10/23 10:56:37;;;;;;;0.60;0.60;;;19.70;48.50;19.40;95765.00;;;;5115762;28;20194;-52
2022/10/23 10:59:14;;;;;;;0.30;0.30;;;19.80;46.90;19.20;95767.00;;;;5115631;28;20186;-52
2022/10/23 11:01:48;;;;;;;0.50;0.50;;;19.70;47.20;19.10;95758.00;;;;5097987;28;20682;-53
2022/10/23 11:04:31;;;;;;;0.40;0.40;;;19.60;48.90;19.40;95759.00;;;;5116152;28;20198;-50
2022/10/23 11:07:05;;;;;;;0.50;0.50;;;19.70;49.20;19.40;95746.00;;;;5097676;28;20265;-53
2022/10/23 11:09:32;;;;;;;0.47;0.47;;;19.80;49.10;19.50;95750.00;;;;5115745;28;20212;-53
2022/10/23 11:11:58;;;;;;;0.60;0.60;;;20.00;49.30;19.60;95753.00;;;;5115562;28;20197;-52
2022/10/23 11:14:31;;;;;;;0.40;0.40;;;19.90;44.80;19.60;95744.00;;;;5115545;28;20229;-51
2022/10/23 11:17:08;;;;;;;0.40;0.40;;;20.00;47.70;19.60;95738.00;;;;5115675;28;20537;-52